Marathon, Canada
Current Conditions -  °F | °C
As of 1:00 PM on Sunday 21 Dec 2014 (Local Time) from CYGQ Reporting Station
Haze Haze  
Wind Chill: 25°   Ceiling: 2000
Heat Index: 32°   Visibility: 5mi
Dew Point: 28°   Wind: 8mph
Humidity: 87%   Direction: 170°S
Pressure: 29.95"   Gusts: NA
Location:  48.76°N, 86.35°W
Report Text: CYGQ 211800Z 17007KT 5SM BR SCT007 OVC020 M00/M02 A2995 RMKSF4SC4 SLP163
Loading
Personal Weather Stations






























Interactive Weather Map New forecast layout! Learn more

10-Day Weather Forecast

Advertisements
Track Severe Weather on mobile